createdAt,value
2018-01-16T00:01:05.503Z,8.42
2018-01-16T00:03:51.328Z,8.35
2018-01-16T00:04:50.569Z,8.26
2018-01-16T00:06:54.303Z,8.16
2018-01-16T00:07:52.051Z,8.09
2018-01-16T00:09:58.030Z,8.01
2018-01-16T00:10:56.996Z,7.91
2018-01-16T00:13:04.127Z,7.92
2018-01-16T00:14:19.354Z,7.82
2018-01-16T00:16:04.975Z,7.85
2018-01-16T00:17:04.577Z,7.88
2018-01-16T00:21:07.221Z,7.73
2018-01-16T00:22:19.749Z,7.70
2018-01-16T00:24:45.251Z,7.83
2018-01-16T00:27:41.865Z,7.74
2018-01-16T00:28:21.290Z,7.74
2018-01-16T00:30:26.085Z,7.73
2018-01-16T00:31:25.111Z,7.71
2018-01-16T00:33:18.564Z,7.67
2018-01-16T00:34:18.526Z,7.58
2018-01-16T00:36:11.972Z,7.68
2018-01-16T00:37:11.959Z,7.59
2018-01-16T00:39:05.431Z,7.63
2018-01-16T00:40:05.394Z,7.63
2018-01-16T00:42:00.368Z,7.63
2018-01-16T00:42:59.912Z,7.61
2018-01-16T00:44:54.357Z,7.63
2018-01-16T00:45:53.378Z,7.59
2018-01-16T00:47:47.311Z,7.71
2018-01-16T00:48:46.783Z,7.77
2018-01-16T00:50:40.730Z,7.70
2018-01-16T00:51:40.240Z,7.75
2018-01-16T00:53:33.714Z,7.68
2018-01-16T00:54:33.662Z,7.78
2018-01-16T00:56:27.619Z,7.73
2018-01-16T00:57:27.112Z,7.70
2018-01-16T00:59:21.058Z,7.68
2018-01-16T01:00:20.552Z,7.64
2018-01-16T01:02:13.971Z,7.58
2018-01-16T01:03:13.951Z,7.58
2018-01-16T01:05:07.423Z,7.68
2018-01-16T01:06:07.408Z,7.68
2018-01-16T01:08:00.869Z,7.61
2018-01-16T01:09:01.366Z,7.61
2018-01-16T01:10:54.258Z,7.63
2018-01-16T01:11:54.791Z,7.58
2018-01-16T01:13:47.690Z,7.68
2018-01-16T01:14:47.680Z,7.68
2018-01-16T01:16:41.141Z,7.64
2018-01-16T01:17:41.112Z,7.63
2018-01-16T01:19:35.564Z,7.58
2018-01-16T01:20:34.522Z,7.61
2018-01-16T01:22:27.983Z,7.70
2018-01-16T01:23:27.950Z,7.67
2018-01-16T01:25:21.883Z,7.68
2018-01-16T01:26:21.373Z,7.75
2018-01-16T01:28:14.856Z,7.74
2018-01-16T01:29:14.795Z,7.74
2018-01-16T01:31:09.241Z,7.68
2018-01-16T01:32:09.751Z,7.80
2018-01-16T01:34:02.669Z,7.82
2018-01-16T01:35:04.176Z,7.82
2018-01-16T01:36:56.615Z,7.85
2018-01-16T01:37:56.098Z,7.78
2018-01-16T01:39:49.555Z,7.75
2018-01-16T01:40:50.065Z,7.78
2018-01-16T01:42:43.497Z,7.68
2018-01-16T01:43:42.935Z,7.61
2018-01-16T01:45:36.397Z,7.64
2018-01-16T01:46:36.374Z,7.61
2018-01-16T01:48:29.822Z,7.51
2018-01-16T01:49:29.804Z,7.49
2018-01-16T01:51:23.284Z,7.51
2018-01-16T01:52:23.244Z,7.64
2018-01-16T01:54:16.673Z,7.61
2018-01-16T01:55:16.668Z,7.68
2018-01-16T01:57:10.130Z,7.64
2018-01-16T01:58:10.108Z,7.68
2018-01-16T02:00:03.527Z,7.77
2018-01-16T02:01:03.535Z,7.74
2018-01-16T02:02:57.489Z,7.68
2018-01-16T02:03:57.490Z,7.63
2018-01-16T02:05:50.409Z,7.73
2018-01-16T02:06:50.361Z,7.64
2018-01-16T02:08:43.779Z,7.78
2018-01-16T02:09:43.776Z,7.64
2018-01-16T02:11:37.263Z,7.63
2018-01-16T02:12:37.219Z,7.63
2018-01-16T02:14:31.169Z,7.61
2018-01-16T02:15:31.183Z,7.49
2018-01-16T02:17:24.118Z,7.51
2018-01-16T02:18:24.105Z,7.51
2018-01-16T02:20:18.550Z,7.49
2018-01-16T02:21:18.518Z,7.44
2018-01-16T02:23:11.916Z,7.40
2018-01-16T02:24:11.901Z,7.40
2018-01-16T02:26:05.857Z,7.31
2018-01-16T02:27:05.332Z,7.26
2018-01-16T02:28:59.300Z,7.34
2018-01-16T02:29:58.751Z,7.29
2018-01-16T02:31:52.229Z,7.34
2018-01-16T02:32:52.198Z,7.31
2018-01-16T02:34:46.624Z,7.34
2018-01-16T02:35:46.612Z,7.26
2018-01-16T02:37:40.080Z,7.21
2018-01-16T02:38:40.070Z,7.18
2018-01-16T02:40:33.534Z,7.05
2018-01-16T02:41:33.507Z,7.00
2018-01-16T02:43:27.955Z,7.09
2018-01-16T02:44:27.961Z,7.05
2018-01-16T02:46:20.395Z,7.08
2018-01-16T02:47:20.388Z,7.12
2018-01-16T02:49:13.862Z,7.16
2018-01-16T02:50:13.831Z,7.09
2018-01-16T02:52:08.775Z,7.29
2018-01-16T02:53:07.284Z,7.36
2018-01-16T02:55:00.738Z,7.34
2018-01-16T02:56:00.707Z,7.31
2018-01-16T02:57:55.158Z,7.36
2018-01-16T02:58:54.161Z,7.47
2018-01-16T03:00:47.614Z,7.45
2018-01-16T03:01:48.092Z,7.39
2018-01-16T03:03:41.036Z,7.44
2018-01-16T03:04:41.031Z,7.41
2018-01-16T03:06:34.499Z,7.51
2018-01-16T03:07:34.462Z,7.51
2018-01-16T03:09:27.925Z,7.56
2018-01-16T03:10:27.895Z,7.49
2018-01-16T03:12:22.357Z,7.54
2018-01-16T03:13:21.297Z,7.54
2018-01-16T03:15:15.241Z,7.51
2018-01-16T03:16:14.723Z,7.56
2018-01-16T03:18:08.136Z,7.49
2018-01-16T03:19:08.693Z,7.51
2018-01-16T03:21:02.605Z,7.54
2018-01-16T03:22:02.097Z,7.55
2018-01-16T03:23:55.537Z,7.54
2018-01-16T03:24:54.998Z,7.54
2018-01-16T03:26:48.469Z,7.54
2018-01-16T03:27:48.426Z,7.49
2018-01-16T03:29:41.901Z,7.49
2018-01-16T03:30:41.847Z,7.68
2018-01-16T03:32:35.802Z,7.67
2018-01-16T03:33:35.244Z,7.67
2018-01-16T03:35:29.196Z,7.52
2018-01-16T03:36:29.199Z,7.54
2018-01-16T03:38:22.107Z,7.63
2018-01-16T03:39:22.086Z,7.68
2018-01-16T03:41:15.559Z,7.64
2018-01-16T03:42:15.521Z,7.63
2018-01-16T03:44:08.992Z,7.67
2018-01-16T03:45:08.958Z,7.61
2018-01-16T03:47:02.414Z,7.64
2018-01-16T03:48:02.393Z,7.47
2018-01-16T03:49:55.828Z,7.59
2018-01-16T03:50:55.817Z,7.64
2018-01-16T03:52:49.282Z,7.63
2018-01-16T03:53:49.208Z,7.59
2018-01-16T03:55:43.157Z,7.63
2018-01-16T03:56:42.620Z,7.61
2018-01-16T03:58:36.069Z,7.68
2018-01-16T03:59:36.588Z,7.64
2018-01-16T04:01:29.516Z,7.58
2018-01-16T04:02:29.497Z,7.67
2018-01-16T04:04:23.947Z,7.51
2018-01-16T04:05:24.439Z,7.61
2018-01-16T04:07:18.889Z,7.58
2018-01-16T04:08:18.375Z,7.59
2018-01-16T04:10:13.309Z,7.68
2018-01-16T04:11:11.791Z,7.58
2018-01-16T04:13:07.168Z,7.67
2018-01-16T04:14:05.214Z,7.61
2018-01-16T04:15:58.662Z,7.63
2018-01-16T04:16:58.639Z,7.51
2018-01-16T04:18:53.108Z,7.52
2018-01-16T04:19:53.085Z,7.55
2018-01-16T04:21:46.488Z,7.44
2018-01-16T04:22:46.499Z,7.45
2018-01-16T04:24:39.985Z,7.49
2018-01-16T04:25:40.443Z,7.47
2018-01-16T04:27:33.392Z,7.41
2018-01-16T04:28:33.907Z,7.45
2018-01-16T04:30:27.854Z,7.40
2018-01-16T04:31:26.802Z,7.44
2018-01-16T04:33:20.753Z,7.39
2018-01-16T04:34:20.782Z,7.36
2018-01-16T04:36:13.708Z,7.30
2018-01-16T04:37:13.662Z,7.23
2018-01-16T04:39:07.123Z,7.23
2018-01-16T04:40:07.112Z,7.27
2018-01-16T04:42:01.072Z,7.11
2018-01-16T04:43:00.528Z,7.13
2018-01-16T04:44:54.983Z,7.12
2018-01-16T04:45:53.948Z,7.03
2018-01-16T04:47:47.919Z,7.05
2018-01-16T04:48:47.379Z,7.01
2018-01-16T04:50:40.824Z,6.95
2018-01-16T04:51:40.843Z,6.97
2018-01-16T04:53:35.303Z,6.98
2018-01-16T04:54:35.297Z,7.01
2018-01-16T04:56:28.747Z,6.83
2018-01-16T04:57:28.772Z,6.85
2018-01-16T04:59:22.686Z,6.85
2018-01-16T05:00:22.158Z,6.86
2018-01-16T05:02:15.659Z,6.88
2018-01-16T05:03:15.554Z,6.80
2018-01-16T05:05:08.999Z,6.70
2018-01-16T05:06:09.006Z,6.72
2018-01-16T05:08:03.442Z,6.73
2018-01-16T05:09:03.927Z,6.62
2018-01-16T05:10:56.852Z,6.60
2018-01-16T05:11:57.355Z,6.61
2018-01-16T05:13:52.299Z,6.58
2018-01-16T05:14:51.279Z,6.47
2018-01-16T05:16:45.697Z,6.47
2018-01-16T05:17:45.679Z,6.55
2018-01-16T05:19:40.112Z,6.46
2018-01-16T05:20:40.133Z,6.52
2018-01-16T05:22:33.603Z,6.62
2018-01-16T05:23:33.539Z,6.61
2018-01-16T05:25:26.956Z,6.62
2018-01-16T05:26:26.946Z,6.60
2018-01-16T05:28:21.416Z,6.57
2018-01-16T05:29:21.397Z,6.62
2018-01-16T05:31:16.340Z,6.60
2018-01-16T05:32:16.320Z,6.61
2018-01-16T05:34:10.282Z,6.64
2018-01-16T05:35:10.750Z,6.64
2018-01-16T05:37:03.706Z,6.55
2018-01-16T05:38:04.178Z,6.65
2018-01-16T05:39:59.148Z,6.72
2018-01-16T05:40:58.097Z,6.72
2018-01-16T05:42:53.049Z,6.67
2018-01-16T05:43:52.052Z,6.67
2018-01-16T05:45:44.917Z,6.85
2018-01-16T05:46:45.455Z,6.75
2018-01-16T05:48:38.369Z,6.83
2018-01-16T05:49:38.875Z,6.85
2018-01-16T05:51:32.834Z,6.85
2018-01-16T05:52:32.871Z,6.83
2018-01-16T05:54:26.285Z,6.88
2018-01-16T05:55:26.239Z,6.94
2018-01-16T05:57:20.665Z,6.93
2018-01-16T05:58:21.202Z,6.97
2018-01-16T06:00:15.133Z,7.09
2018-01-16T06:01:15.092Z,7.03
2018-01-16T06:03:09.507Z,7.05
2018-01-16T06:04:09.532Z,7.16
2018-01-16T06:06:02.939Z,7.16
2018-01-16T06:07:03.455Z,7.18
2018-01-16T06:08:57.379Z,7.26
2018-01-16T06:09:57.887Z,7.09
2018-01-16T06:11:51.809Z,7.19
2018-01-16T06:12:51.807Z,7.22
2018-01-16T06:14:45.220Z,7.31
2018-01-16T06:15:45.248Z,7.36
2018-01-16T06:17:38.701Z,7.44
2018-01-16T06:18:38.665Z,7.56
2018-01-16T06:20:32.105Z,7.51
2018-01-16T06:21:32.097Z,7.52
2018-01-16T06:23:27.546Z,7.61
2018-01-16T06:24:26.514Z,7.59
2018-01-16T06:26:20.959Z,7.61
2018-01-16T06:27:20.940Z,7.70
2018-01-16T06:29:15.904Z,7.71
2018-01-16T06:30:15.374Z,7.74
2018-01-16T06:32:09.826Z,7.82
2018-01-16T06:33:10.817Z,7.83
2018-01-16T06:35:05.747Z,7.80
2018-01-16T06:36:05.738Z,7.78
2018-01-16T06:37:59.218Z,7.80
2018-01-16T06:38:59.190Z,7.91
2018-01-16T06:40:54.146Z,7.93
2018-01-16T06:41:53.609Z,7.93
2018-01-16T06:43:48.052Z,7.99
2018-01-16T06:44:48.545Z,8.06
2018-01-16T06:46:42.492Z,7.95
2018-01-16T06:47:42.490Z,7.92
2018-01-16T06:49:35.903Z,8.09
2018-01-16T06:50:37.447Z,8.06
2018-01-16T06:52:31.276Z,8.01
2018-01-16T06:53:30.316Z,8.01
2018-01-16T06:55:23.744Z,7.96
2018-01-16T06:56:23.763Z,7.96
2018-01-16T06:58:21.202Z,7.83
2018-01-16T06:59:19.716Z,7.83
2018-01-16T07:01:14.193Z,7.82
2018-01-16T07:02:14.204Z,7.82
2018-01-16T07:04:07.674Z,7.77
2018-01-16T07:05:07.660Z,7.67
2018-01-16T07:07:01.059Z,7.71
2018-01-16T07:08:01.079Z,7.80
2018-01-16T07:09:54.504Z,7.67
2018-01-16T07:10:55.002Z,7.70
2018-01-16T07:12:49.447Z,7.64
2018-01-16T07:13:48.909Z,7.64
2018-01-16T07:15:43.846Z,7.63
2018-01-16T07:16:42.327Z,7.68
2018-01-16T07:18:37.268Z,7.67
2018-01-16T07:19:37.279Z,7.67
2018-01-16T07:21:30.209Z,7.64
2018-01-16T07:22:30.704Z,7.70
2018-01-16T07:24:24.633Z,7.63
2018-01-16T07:25:23.610Z,7.68
2018-01-16T07:27:17.031Z,7.55
2018-01-16T07:28:17.046Z,7.49
2018-01-16T07:30:10.985Z,7.59
2018-01-16T07:31:10.477Z,7.58
2018-01-16T07:33:04.423Z,7.54
2018-01-16T07:34:03.880Z,7.51
2018-01-16T07:35:59.862Z,7.52
2018-01-16T07:37:00.835Z,7.52
2018-01-16T07:38:54.800Z,7.56
2018-01-16T07:39:53.799Z,7.51
2018-01-16T07:41:47.742Z,7.51
2018-01-16T07:42:47.728Z,7.51
2018-01-16T07:44:44.167Z,7.48
2018-01-16T07:45:43.650Z,7.67
2018-01-16T07:47:38.110Z,7.59
2018-01-16T07:48:38.084Z,7.59
2018-01-16T07:50:32.553Z,7.67
2018-01-16T07:51:33.056Z,7.70
2018-01-16T07:53:26.982Z,7.77
2018-01-16T07:54:26.964Z,7.75
2018-01-16T07:56:20.425Z,7.78
2018-01-16T07:57:20.905Z,7.86
2018-01-16T07:59:13.862Z,7.85
2018-01-16T08:00:13.834Z,7.83
2018-01-16T08:02:07.298Z,7.88
2018-01-16T08:03:07.271Z,7.96
2018-01-16T08:05:00.739Z,7.93
2018-01-16T08:06:00.728Z,8.03
2018-01-16T08:07:54.693Z,8.10
2018-01-16T08:08:54.155Z,7.95
2018-01-16T08:10:47.608Z,8.01
2018-01-16T08:11:48.106Z,7.95
2018-01-16T08:13:41.035Z,8.11
2018-01-16T08:14:42.552Z,8.06
2018-01-16T08:16:35.484Z,7.95
2018-01-16T08:17:35.440Z,8.06
2018-01-16T08:19:28.873Z,8.10
2018-01-16T08:20:28.877Z,8.10
2018-01-16T08:22:24.849Z,8.11
2018-01-16T08:23:25.756Z,8.13
2018-01-16T08:25:18.741Z,8.16
2018-01-16T08:26:18.208Z,8.11
2018-01-16T08:28:11.653Z,8.16
2018-01-16T08:29:11.631Z,8.09
2018-01-16T08:31:06.116Z,8.10
2018-01-16T08:32:06.057Z,8.09
2018-01-16T08:34:02.032Z,8.13
2018-01-16T08:35:00.487Z,8.17
2018-01-16T08:36:54.984Z,8.29
2018-01-16T08:37:54.960Z,8.25
2018-01-16T08:39:50.903Z,8.29
2018-01-16T08:40:50.858Z,8.26
2018-01-16T08:42:44.292Z,8.28
2018-01-16T08:43:44.271Z,8.29
2018-01-16T08:45:37.746Z,8.32
2018-01-16T08:46:37.715Z,8.35
2018-01-16T08:48:31.660Z,8.31
2018-01-16T08:49:31.146Z,8.39
2018-01-16T08:51:25.609Z,8.44
2018-01-16T08:52:25.583Z,8.42
2018-01-16T08:54:19.034Z,8.34
2018-01-16T08:55:19.022Z,8.39
2018-01-16T08:57:12.484Z,8.34
2018-01-16T08:58:12.477Z,8.44
2018-01-16T09:00:07.917Z,8.42
2018-01-16T09:01:06.917Z,8.35
2018-01-16T09:03:00.307Z,8.43
2018-01-16T09:04:00.326Z,8.32
2018-01-16T09:05:54.758Z,8.34
2018-01-16T09:06:54.772Z,8.44
2018-01-16T09:08:48.225Z,8.36
2018-01-16T09:09:48.709Z,8.49
2018-01-16T09:11:44.629Z,8.50
2018-01-16T09:12:45.067Z,8.60
2018-01-16T09:14:37.548Z,8.50
2018-01-16T09:15:37.555Z,8.49
2018-01-16T09:17:31.972Z,8.60
2018-01-16T09:18:31.959Z,8.57
2018-01-16T09:20:26.427Z,8.65
2018-01-16T09:21:26.396Z,8.53
2018-01-16T09:23:20.838Z,8.61
2018-01-16T09:24:20.839Z,8.62
2018-01-16T09:26:14.296Z,8.62
2018-01-16T09:27:14.280Z,8.61
2018-01-16T09:29:07.711Z,8.68
2018-01-16T09:30:07.700Z,8.57
2018-01-16T09:32:01.662Z,8.62
2018-01-16T09:33:01.127Z,8.58
2018-01-16T09:34:54.568Z,8.61
2018-01-16T09:35:54.545Z,8.67
2018-01-16T09:37:48.020Z,8.64
2018-01-16T09:38:48.502Z,8.61
2018-01-16T09:40:41.446Z,8.64
2018-01-16T09:41:41.468Z,8.64
2018-01-16T09:43:34.888Z,8.72
2018-01-16T09:44:35.810Z,8.64
2018-01-16T09:46:29.302Z,8.79
2018-01-16T09:47:29.806Z,8.77
2018-01-16T09:49:23.259Z,8.95
2018-01-16T09:50:22.714Z,9.16
2018-01-16T09:52:16.182Z,9.14
2018-01-16T09:53:16.100Z,9.17
2018-01-16T09:55:10.572Z,9.14
2018-01-16T09:56:09.585Z,9.08
2018-01-16T09:58:04.539Z,9.00
2018-01-16T09:59:04.038Z,8.98
2018-01-16T10:00:57.640Z,8.89
2018-01-16T10:01:57.575Z,8.87
2018-01-16T10:03:52.057Z,8.87
2018-01-16T10:04:52.008Z,8.80
2018-01-16T10:06:45.986Z,8.74
2018-01-16T10:07:47.700Z,8.83
2018-01-16T10:09:39.423Z,8.61
2018-01-16T10:10:38.913Z,8.52
2018-01-16T10:12:33.367Z,8.49
2018-01-16T10:13:32.858Z,8.52
2018-01-16T10:15:27.281Z,8.47
2018-01-16T10:16:27.269Z,8.44
2018-01-16T10:18:21.694Z,8.31
2018-01-16T10:19:20.174Z,8.39
2018-01-16T10:21:15.134Z,8.31
2018-01-16T10:22:14.662Z,8.35
2018-01-16T10:24:10.604Z,8.57
2018-01-16T10:25:09.097Z,8.60
2018-01-16T10:27:04.035Z,8.54
2018-01-16T10:28:02.504Z,8.64
2018-01-16T10:29:56.965Z,8.52
2018-01-16T10:30:56.958Z,8.60
2018-01-16T10:32:51.363Z,8.71
2018-01-16T10:33:51.348Z,8.71
2018-01-16T10:35:44.856Z,8.58
2018-01-16T10:36:44.790Z,8.58
2018-01-16T10:38:38.250Z,8.43
2018-01-16T10:39:38.220Z,8.49
2018-01-16T10:41:31.633Z,8.50
2018-01-16T10:42:31.656Z,8.49
2018-01-16T10:44:26.085Z,8.47
2018-01-16T10:45:25.295Z,8.53
2018-01-16T10:47:18.775Z,8.60
2018-01-16T10:48:18.739Z,8.67
2018-01-16T10:50:12.677Z,8.57
2018-01-16T10:51:12.155Z,8.61
2018-01-16T10:53:05.622Z,8.43
2018-01-16T10:54:05.547Z,8.35
2018-01-16T10:55:59.020Z,8.49
2018-01-16T10:56:58.981Z,8.49
2018-01-16T10:58:52.953Z,7.83
2018-01-16T10:59:52.411Z,7.51
2018-01-16T11:01:46.864Z,6.86
2018-01-16T11:02:45.828Z,6.80
2018-01-16T11:04:39.801Z,6.44
2018-01-16T11:05:39.277Z,6.33
2018-01-16T11:07:33.216Z,6.20
2018-01-16T11:08:32.712Z,6.13
2018-01-16T11:10:26.184Z,6.15
2018-01-16T11:11:26.165Z,6.29
2018-01-16T11:13:21.083Z,6.52
2018-01-16T11:14:21.085Z,6.61
2018-01-16T11:16:15.026Z,6.60
2018-01-16T11:17:15.025Z,6.67
2018-01-16T11:19:08.957Z,6.73
2018-01-16T11:20:08.454Z,6.76
2018-01-16T11:22:02.404Z,6.85
2018-01-16T11:23:01.895Z,6.82
2018-01-16T11:24:55.854Z,6.68
2018-01-16T11:25:55.345Z,6.58
2018-01-16T11:27:49.269Z,6.49
2018-01-16T11:28:48.746Z,6.51
2018-01-16T11:30:43.173Z,6.57
2018-01-16T11:31:43.173Z,6.51
2018-01-16T11:33:36.631Z,6.57
2018-01-16T11:34:36.605Z,6.55
2018-01-16T11:36:31.035Z,6.47
2018-01-16T11:37:31.026Z,6.51
2018-01-16T11:39:25.490Z,6.57
2018-01-16T11:40:25.992Z,6.57
2018-01-16T11:42:18.962Z,6.57
2018-01-16T11:43:18.859Z,6.64
2018-01-16T11:45:12.302Z,6.64
2018-01-16T11:46:12.811Z,6.60
2018-01-16T11:48:06.239Z,6.62
2018-01-16T11:49:05.726Z,6.46
2018-01-16T11:50:59.178Z,6.47
2018-01-16T11:51:59.169Z,6.46
2018-01-16T11:53:55.105Z,6.33
2018-01-16T11:54:53.581Z,6.36
2018-01-16T11:56:47.052Z,6.24
2018-01-16T11:57:47.032Z,6.13
2018-01-16T11:59:40.956Z,6.02
2018-01-16T12:00:40.432Z,6.00
2018-01-16T12:02:34.902Z,6.05
2018-01-16T12:03:34.871Z,5.91
2018-01-16T12:05:29.312Z,5.85
2018-01-16T12:06:28.324Z,5.81
2018-01-16T12:08:23.750Z,5.44
2018-01-16T12:09:22.760Z,5.27
2018-01-16T12:11:16.159Z,5.02
2018-01-16T12:12:16.162Z,4.79
2018-01-16T12:14:12.079Z,4.72
2018-01-16T12:15:12.067Z,4.56
2018-01-16T12:17:06.518Z,4.60
2018-01-16T12:18:06.501Z,4.53
2018-01-16T12:20:02.389Z,4.56
2018-01-16T12:21:00.932Z,4.58
2018-01-16T12:22:54.893Z,4.65
2018-01-16T12:23:53.843Z,4.75
2018-01-16T12:25:49.800Z,4.83
2018-01-16T12:26:49.775Z,4.74
2018-01-16T12:28:44.252Z,4.76
2018-01-16T12:31:10.995Z,4.72
2018-01-16T12:32:09.881Z,4.69
2018-01-16T12:34:18.317Z,4.68
2018-01-16T12:35:16.704Z,4.57
2018-01-16T12:37:14.609Z,4.65
2018-01-16T12:38:14.990Z,4.58
2018-01-16T12:40:07.593Z,4.46
2018-01-16T12:41:06.629Z,4.40
2018-01-16T12:43:02.538Z,4.17
2018-01-16T12:44:02.511Z,4.11
2018-01-16T12:45:56.932Z,3.92
2018-01-16T12:46:57.902Z,3.97
2018-01-16T12:48:53.877Z,4.00
2018-01-16T12:49:51.970Z,4.02
2018-01-16T12:51:44.972Z,4.10
2018-01-16T12:52:44.381Z,4.17
2018-01-16T12:54:39.332Z,4.18
2018-01-16T12:55:38.796Z,4.22
2018-01-16T12:57:32.760Z,4.36
2018-01-16T12:58:32.302Z,4.30
2018-01-16T13:00:27.038Z,4.35
2018-01-16T13:01:27.916Z,4.36
2018-01-16T13:03:22.259Z,4.24
2018-01-16T13:04:21.460Z,4.20
2018-01-16T13:06:15.894Z,4.38
2018-01-16T13:07:15.876Z,4.42
2018-01-16T13:09:10.284Z,4.58
2018-01-16T13:10:10.299Z,4.68
2018-01-16T13:12:05.268Z,4.85
2018-01-16T13:13:04.752Z,4.76
2018-01-16T13:14:58.705Z,4.75
2018-01-16T13:15:58.825Z,4.74
2018-01-16T13:17:53.114Z,4.75
2018-01-16T13:18:52.576Z,4.75
2018-01-16T13:20:47.012Z,4.83
2018-01-16T13:21:47.163Z,4.76
2018-01-16T13:24:01.022Z,4.90
2018-01-16T13:26:38.125Z,4.92
2018-01-16T13:27:32.152Z,4.79
2018-01-16T13:29:24.816Z,4.87
2018-01-16T13:30:24.778Z,4.66
2018-01-16T13:32:19.390Z,4.78
2018-01-16T13:33:19.389Z,4.64
2018-01-16T13:35:20.017Z,4.54
2018-01-16T13:38:11.035Z,4.21
2018-01-16T13:39:11.030Z,4.21
2018-01-16T13:41:04.506Z,4.21
2018-01-16T13:42:04.465Z,4.17
2018-01-16T13:44:00.441Z,3.97
2018-01-16T13:45:00.426Z,3.94
2018-01-16T13:46:57.776Z,3.89
2018-01-16T13:47:54.859Z,3.97
2018-01-16T13:49:49.323Z,3.93
2018-01-16T13:50:49.834Z,4.04
2018-01-16T13:52:55.763Z,4.07
2018-01-16T13:53:56.768Z,4.10
2018-01-16T13:56:01.624Z,4.07
2018-01-16T13:57:01.612Z,4.21
2018-01-16T13:59:12.589Z,4.18
2018-01-16T14:00:04.322Z,4.28
2018-01-16T14:01:56.215Z,4.48
2018-01-16T14:02:56.224Z,4.58
2018-01-16T14:04:53.178Z,4.58
2018-01-16T14:05:52.663Z,4.56
2018-01-16T14:07:46.623Z,4.57
2018-01-16T14:08:46.567Z,4.54
2018-01-16T14:10:40.973Z,4.60
2018-01-16T14:11:40.997Z,4.68
2018-01-16T14:13:35.290Z,4.87
2018-01-16T14:14:35.277Z,4.79
2018-01-16T14:16:29.733Z,4.97
2018-01-16T14:17:29.693Z,5.03
2018-01-16T14:19:24.131Z,5.30
2018-01-16T14:20:24.756Z,5.27
2018-01-16T14:22:17.579Z,5.46
2018-01-16T14:23:17.681Z,5.51
2018-01-16T14:25:11.964Z,5.57
2018-01-16T14:26:11.913Z,5.59
2018-01-16T14:28:07.313Z,5.62
2018-01-16T14:29:06.356Z,5.60
2018-01-16T14:31:01.297Z,5.49
2018-01-16T14:32:00.783Z,5.48
2018-01-16T14:33:55.207Z,5.49
2018-01-16T14:34:55.200Z,5.45
2018-01-16T14:36:50.146Z,5.46
2018-01-16T14:37:49.622Z,5.49
2018-01-16T14:39:44.039Z,5.52
2018-01-16T14:40:44.040Z,5.41
2018-01-16T14:42:38.470Z,5.52
2018-01-16T14:43:38.429Z,5.52
2018-01-16T14:45:32.878Z,5.62
2018-01-16T14:46:32.859Z,5.59
2018-01-16T14:48:27.371Z,5.52
2018-01-16T14:49:28.296Z,5.49
2018-01-16T14:51:21.820Z,5.52
2018-01-16T14:52:21.813Z,5.52
2018-01-16T14:54:16.236Z,5.48
2018-01-16T14:55:16.242Z,5.57
2018-01-16T14:57:15.704Z,5.57
2018-01-16T14:58:16.173Z,5.62
2018-01-16T15:00:12.078Z,5.55
2018-01-16T15:01:08.971Z,5.49
2018-01-16T15:03:04.864Z,5.37
2018-01-16T15:04:04.843Z,5.34
2018-01-16T15:05:59.311Z,5.27
2018-01-16T15:06:59.291Z,5.12
2018-01-16T15:08:53.761Z,5.12
2018-01-16T15:09:53.771Z,5.08
2018-01-16T15:11:48.723Z,5.13
2018-01-16T15:12:48.211Z,5.06
2018-01-16T15:14:43.157Z,5.02
2018-01-16T15:15:42.633Z,4.97
2018-01-16T15:17:37.052Z,4.97
2018-01-16T15:18:37.038Z,4.88
2018-01-16T15:20:31.500Z,4.83
2018-01-16T15:21:31.477Z,4.90
2018-01-16T15:23:25.437Z,4.83
2018-01-16T15:24:24.889Z,4.87
2018-01-16T15:26:18.308Z,4.90
2018-01-16T15:27:18.315Z,4.90
2018-01-16T15:29:11.790Z,4.90
2018-01-16T15:30:11.735Z,4.94
2018-01-16T15:32:06.179Z,5.02
2018-01-16T15:33:06.172Z,5.00
2018-01-16T15:35:00.120Z,5.06
2018-01-16T15:35:59.598Z,5.08
2018-01-16T15:37:53.072Z,5.05
2018-01-16T15:38:53.022Z,5.16
2018-01-16T15:40:46.977Z,5.03
2018-01-16T15:41:46.459Z,5.03
2018-01-16T15:43:40.403Z,5.08
2018-01-16T15:44:39.885Z,5.10
2018-01-16T15:46:33.317Z,5.15
2018-01-16T15:47:33.830Z,5.15
2018-01-16T15:49:26.735Z,5.21
2018-01-16T15:50:26.737Z,5.16
2018-01-16T15:52:21.124Z,5.09
2018-01-16T15:53:21.139Z,4.97
2018-01-16T15:55:16.078Z,4.98
2018-01-16T15:56:14.552Z,4.88
2018-01-16T15:58:08.965Z,4.79
2018-01-16T15:59:09.494Z,4.90
2018-01-16T16:01:03.437Z,4.87
2018-01-16T16:02:04.917Z,4.90
2018-01-16T16:03:57.856Z,4.78
2018-01-16T16:04:57.838Z,4.85
2018-01-16T16:06:51.767Z,4.78
2018-01-16T16:07:51.246Z,4.92
2018-01-16T16:09:44.702Z,4.90
2018-01-16T16:10:45.630Z,4.90
2018-01-16T16:12:38.642Z,4.85
2018-01-16T16:13:38.099Z,4.90
2018-01-16T16:15:31.564Z,4.87
2018-01-16T16:16:32.044Z,4.90
2018-01-16T16:18:25.941Z,4.94
2018-01-16T16:19:25.944Z,4.85
2018-01-16T16:21:19.406Z,4.90
2018-01-16T16:22:19.359Z,4.88
2018-01-16T16:24:13.787Z,4.90
2018-01-16T16:25:14.307Z,4.84
2018-01-16T16:27:08.236Z,4.83
2018-01-16T16:28:08.721Z,4.90
2018-01-16T16:30:03.125Z,4.88
2018-01-16T16:31:01.667Z,4.83
2018-01-16T16:32:55.003Z,4.69
2018-01-16T16:33:55.007Z,4.74
2018-01-16T16:35:48.464Z,4.71
2018-01-16T16:36:48.422Z,4.69
2018-01-16T16:38:43.684Z,4.68
2018-01-16T16:39:44.401Z,4.66
2018-01-16T16:41:38.148Z,4.64
2018-01-16T16:42:38.129Z,4.65
2018-01-16T16:44:32.500Z,4.60
2018-01-16T16:45:31.536Z,4.60
2018-01-16T16:47:25.495Z,4.58
2018-01-16T16:48:25.489Z,4.66
2018-01-16T16:50:19.385Z,4.54
2018-01-16T16:51:19.389Z,4.47
2018-01-16T16:53:13.330Z,4.44
2018-01-16T16:54:12.794Z,4.54
2018-01-16T16:56:07.226Z,4.51
2018-01-16T16:57:07.228Z,4.50
2018-01-16T16:59:01.174Z,4.61
2018-01-16T17:00:01.604Z,4.56
2018-01-16T17:01:55.075Z,4.58
2018-01-16T17:02:55.584Z,4.58
2018-01-16T17:04:49.478Z,4.60
2018-01-16T17:05:50.011Z,4.68
2018-01-16T17:07:43.421Z,4.68
2018-01-16T17:08:42.896Z,4.69
2018-01-16T17:10:36.345Z,4.64
2018-01-16T17:11:36.333Z,4.66
2018-01-16T17:13:30.320Z,4.64
2018-01-16T17:14:31.275Z,4.58
2018-01-16T17:16:24.228Z,4.61
2018-01-16T17:17:23.203Z,4.61
2018-01-16T17:19:16.657Z,4.64
2018-01-16T17:20:16.647Z,4.56
2018-01-16T17:22:10.089Z,4.58
2018-01-16T17:23:10.086Z,4.56
2018-01-16T17:25:05.029Z,4.58
2018-01-16T17:26:04.523Z,4.61
2018-01-16T17:27:57.987Z,4.61
2018-01-16T17:29:00.409Z,4.57
2018-01-16T17:30:57.339Z,4.60
2018-01-16T17:31:54.779Z,4.58
2018-01-16T17:34:02.258Z,4.69
2018-01-16T17:36:26.580Z,4.84
2018-01-16T17:37:25.518Z,4.84
2018-01-16T17:39:19.131Z,4.74
2018-01-16T17:40:19.631Z,4.58
2018-01-16T17:42:13.084Z,4.58
2018-01-16T17:43:12.494Z,4.64
2018-01-16T17:45:07.459Z,4.54
2018-01-16T17:46:06.911Z,4.60
2018-01-16T17:48:01.373Z,4.68
2018-01-16T17:49:01.364Z,4.61
2018-01-16T17:50:57.804Z,4.53
2018-01-16T17:51:57.799Z,4.71
2018-01-16T17:53:53.190Z,4.66
2018-01-16T17:54:53.194Z,4.69
2018-01-16T17:56:50.144Z,4.72
2018-01-16T17:57:49.107Z,4.64
2018-01-16T17:59:45.554Z,4.69
2018-01-16T18:00:45.029Z,4.61
2018-01-16T18:02:41.980Z,4.75
2018-01-16T18:03:40.923Z,4.71
2018-01-16T18:05:36.866Z,4.76
2018-01-16T18:06:36.876Z,4.71
2018-01-16T18:08:33.811Z,4.66
2018-01-16T18:09:33.335Z,4.75
2018-01-16T18:11:29.258Z,4.68
2018-01-16T18:12:28.718Z,4.66
2018-01-16T18:14:26.686Z,4.71
2018-01-16T18:15:27.170Z,4.58
2018-01-16T18:17:21.077Z,4.61
2018-01-16T18:18:21.066Z,4.58
2018-01-16T18:20:17.532Z,4.60
2018-01-16T18:21:17.523Z,4.53
2018-01-16T18:23:12.960Z,4.57
2018-01-16T18:24:12.912Z,4.56
2018-01-16T18:26:09.357Z,4.50
2018-01-16T18:27:09.339Z,4.47
2018-01-16T18:29:05.276Z,4.58
2018-01-16T18:30:04.747Z,4.53
2018-01-16T18:32:01.194Z,4.64
2018-01-16T18:33:01.204Z,4.64
2018-01-16T18:34:56.643Z,4.61
2018-01-16T18:35:56.592Z,4.57
2018-01-16T18:37:53.107Z,4.64
2018-01-16T18:38:52.533Z,4.57
2018-01-16T18:40:48.515Z,4.61
2018-01-16T18:41:48.443Z,4.54
2018-01-16T18:43:44.429Z,4.65
2018-01-16T18:44:44.405Z,4.60
2018-01-16T18:46:41.866Z,4.60
2018-01-16T18:47:40.298Z,4.54
2018-01-16T18:49:36.260Z,4.57
2018-01-16T18:50:36.207Z,4.58
2018-01-16T18:52:32.693Z,4.54
2018-01-16T18:53:32.112Z,4.57
2018-01-16T18:55:28.036Z,4.53
2018-01-16T18:56:28.038Z,4.46
2018-01-16T18:58:23.983Z,4.48
2018-01-16T18:59:23.985Z,4.47
2018-01-16T19:01:22.427Z,4.46
2018-01-16T19:02:21.894Z,4.42
2018-01-16T19:04:19.953Z,4.39
2018-01-16T19:05:19.919Z,4.40
2018-01-16T19:07:16.389Z,4.40
2018-01-16T19:08:15.849Z,4.44
2018-01-16T19:10:11.816Z,4.35
2018-01-16T19:11:12.724Z,4.32
2018-01-16T19:13:10.247Z,4.28
2018-01-16T19:14:09.795Z,4.24
2018-01-16T19:16:07.776Z,4.17
2018-01-16T19:17:07.720Z,4.12
2018-01-16T19:19:03.635Z,4.04
2018-01-16T19:20:03.628Z,3.97
2018-01-16T19:22:00.507Z,3.93
2018-01-16T19:23:00.089Z,3.94
2018-01-16T19:24:55.512Z,3.97
2018-01-16T19:25:55.462Z,3.94
2018-01-16T19:27:51.937Z,3.82
2018-01-16T19:28:51.404Z,3.78
2018-01-16T19:30:47.324Z,3.78